createdAt,value
2019-01-05T00:02:18.859Z,99799.33
2019-01-05T00:05:06.776Z,99786.97
2019-01-05T00:07:54.193Z,99788.72
2019-01-05T00:10:52.679Z,99785.35
2019-01-05T00:13:40.539Z,99786.02
2019-01-05T00:16:34.160Z,99783.80
2019-01-05T00:19:27.444Z,99787.22
2019-01-05T00:22:16.202Z,99788.81
2019-01-05T00:25:04.438Z,99785.01
2019-01-05T00:28:01.630Z,99780.30
2019-01-05T00:31:06.990Z,99777.96
2019-01-05T00:34:08.137Z,99788.40
2019-01-05T00:37:03.437Z,99792.28
2019-01-05T00:39:48.584Z,99783.51
2019-01-05T00:42:57.559Z,99789.31
2019-01-05T00:45:49.002Z,99790.94
2019-01-05T00:48:49.219Z,99784.84
2019-01-05T00:51:45.342Z,99788.84
2019-01-05T00:54:50.927Z,99796.03
2019-01-05T00:57:50.382Z,99791.15
2019-01-05T01:00:56.240Z,99788.84
2019-01-05T01:03:54.061Z,99786.92
2019-01-05T01:06:36.111Z,99785.98
2019-01-05T01:09:30.605Z,99788.94
2019-01-05T01:12:18.504Z,99779.30
2019-01-05T01:15:07.692Z,99780.50
2019-01-05T01:18:12.148Z,99782.26
2019-01-05T01:21:07.804Z,99778.29
2019-01-05T01:24:10.329Z,99777.92
2019-01-05T01:26:58.617Z,99777.92
2019-01-05T01:29:48.573Z,99777.25
2019-01-05T01:32:47.254Z,99773.36
2019-01-05T01:35:31.226Z,99768.91
2019-01-05T01:38:59.516Z,99776.05
2019-01-05T01:41:57.752Z,99773.73
2019-01-05T01:45:05.075Z,99775.86
2019-01-05T01:48:15.067Z,99771.23
2019-01-05T01:51:13.508Z,99774.87
2019-01-05T01:54:03.427Z,99774.03
2019-01-05T01:56:56.571Z,99766.86
2019-01-05T02:00:10.960Z,99768.86
2019-01-05T02:02:57.227Z,99766.64
2019-01-05T02:05:46.725Z,99779.97
2019-01-05T02:08:54.316Z,99766.73
2019-01-05T02:11:44.733Z,99746.78
2019-01-05T02:14:36.941Z,99755.67
2019-01-05T02:18:16.125Z,99769.06
2019-01-05T02:21:34.218Z,99763.89
2019-01-05T02:25:14.017Z,99765.19
2019-01-05T02:29:00.557Z,99761.39
2019-01-05T02:33:05.733Z,99749.50
2019-01-05T02:36:40.560Z,99749.92
2019-01-05T02:40:38.612Z,99762.52
2019-01-05T02:44:23.482Z,99744.41
2019-01-05T02:48:35.069Z,99736.52
2019-01-05T02:52:32.301Z,99741.58
2019-01-05T02:56:33.721Z,99749.34
2019-01-05T03:00:54.383Z,99740.61
2019-01-05T03:04:39.691Z,99741.53
2019-01-05T03:08:52.262Z,99729.64
2019-01-05T03:12:41.769Z,99736.11
2019-01-05T03:16:20.965Z,99720.42
2019-01-05T03:20:27.707Z,99725.94
2019-01-05T03:24:04.827Z,99706.53
2019-01-05T03:28:10.804Z,99705.83
2019-01-05T03:31:41.104Z,99690.68
2019-01-05T03:35:31.063Z,99691.76
2019-01-05T03:39:23.824Z,99688.96
2019-01-05T03:43:13.397Z,99682.13
2019-01-05T03:47:01.184Z,99668.48
2019-01-05T03:50:43.659Z,99669.03
2019-01-05T03:54:30.602Z,99668.69
2019-01-05T03:58:25.015Z,99656.22
2019-01-05T04:02:00.779Z,99650.30
2019-01-05T04:06:02.054Z,99641.00
2019-01-05T04:10:04.476Z,99634.53
2019-01-05T04:14:01.617Z,99635.12
2019-01-05T04:18:03.339Z,99625.70
2019-01-05T04:22:05.660Z,99626.99
2019-01-05T04:25:59.603Z,99615.94
2019-01-05T04:29:49.412Z,99612.05
2019-01-05T04:33:50.923Z,99615.94
2019-01-05T04:37:34.561Z,99616.02
2019-01-05T04:41:00.730Z,99613.53
2019-01-05T04:44:45.760Z,99616.54
2019-01-05T04:48:36.354Z,99607.24
2019-01-05T04:52:31.240Z,99589.60
2019-01-05T04:56:38.231Z,99586.65
2019-01-05T05:00:22.625Z,99585.94
2019-01-05T05:04:18.194Z,99579.84
2019-01-05T05:08:23.806Z,99561.75
2019-01-05T05:12:11.605Z,99557.34
2019-01-05T05:16:04.001Z,99549.70
2019-01-05T05:19:55.352Z,99543.70
2019-01-05T05:23:41.738Z,99545.70
2019-01-05T05:27:24.800Z,99541.40
2019-01-05T05:31:39.940Z,99543.06
2019-01-05T05:35:15.955Z,99541.22
2019-01-05T05:39:19.016Z,99537.67
2019-01-05T05:43:06.409Z,99531.34
2019-01-05T05:46:59.357Z,99526.28
2019-01-05T05:51:03.423Z,99535.40
2019-01-05T05:55:03.563Z,99544.60
2019-01-05T05:59:20.943Z,99539.98
2019-01-05T06:02:54.937Z,99544.23
2019-01-05T06:06:47.417Z,99548.42
2019-01-05T06:10:44.423Z,99540.45
2019-01-05T06:14:35.196Z,99542.02
2019-01-05T06:18:18.337Z,99532.97
2019-01-05T06:22:00.801Z,99527.73
2019-01-05T06:25:55.674Z,99538.35
2019-01-05T06:30:01.024Z,99540.35
2019-01-05T06:33:52.502Z,99532.59
2019-01-05T06:37:36.779Z,99528.56
2019-01-05T06:41:12.340Z,99521.73
2019-01-05T06:45:14.550Z,99518.13
2019-01-05T06:49:29.661Z,99523.91
2019-01-05T06:53:28.446Z,99519.69
2019-01-05T06:57:32.684Z,99516.77
2019-01-05T07:01:08.931Z,99515.56
2019-01-05T07:04:45.654Z,99503.71
2019-01-05T07:08:47.112Z,99516.18
2019-01-05T07:13:01.141Z,99500.34
2019-01-05T07:16:34.126Z,99502.20
2019-01-05T07:20:29.771Z,99503.64
2019-01-05T07:24:27.180Z,99509.62
2019-01-05T07:28:29.069Z,99506.30
2019-01-05T07:32:36.736Z,99509.03
2019-01-05T07:36:29.318Z,99508.35
2019-01-05T07:40:32.179Z,99498.61
2019-01-05T07:44:31.240Z,99482.31
2019-01-05T07:48:33.694Z,99483.72
2019-01-05T07:52:22.590Z,99492.92
2019-01-05T07:56:09.007Z,99493.98
2019-01-05T07:59:54.156Z,99490.70
2019-01-05T08:03:46.633Z,99488.63
2019-01-05T08:07:31.773Z,99484.98
2019-01-05T08:11:14.201Z,99486.15
2019-01-05T08:15:20.274Z,99490.17
2019-01-05T08:19:23.886Z,99474.08
2019-01-05T08:22:56.293Z,99469.02
2019-01-05T08:26:55.418Z,99470.58
2019-01-05T08:30:51.057Z,99460.00
2019-01-05T08:34:29.766Z,99449.66
2019-01-05T08:38:30.526Z,99447.56
2019-01-05T08:42:15.633Z,99438.73
2019-01-05T08:46:03.597Z,99442.16
2019-01-05T08:49:57.823Z,99445.58
2019-01-05T08:53:49.111Z,99447.38
2019-01-05T08:57:50.059Z,99442.33
2019-01-05T09:01:30.443Z,99446.68
2019-01-05T09:04:58.562Z,99441.97
2019-01-05T09:08:56.666Z,99442.92
2019-01-05T09:12:48.852Z,99443.16
2019-01-05T09:16:27.980Z,99451.30
2019-01-05T09:20:21.040Z,99461.31
2019-01-05T09:24:14.774Z,99471.08
2019-01-05T09:28:02.927Z,99469.81
2019-01-05T09:32:16.969Z,99471.11
2019-01-05T09:35:59.657Z,99470.52
2019-01-05T09:39:43.932Z,99472.67
2019-01-05T09:43:26.307Z,99468.55
2019-01-05T09:47:18.932Z,99474.32
2019-01-05T09:51:04.581Z,99476.21
2019-01-05T09:55:22.543Z,99483.52
2019-01-05T09:59:20.643Z,99486.56
2019-01-05T10:03:15.967Z,99490.11
2019-01-05T10:07:28.695Z,99484.36
2019-01-05T10:11:10.813Z,99475.27
2019-01-05T10:15:01.455Z,99470.78
2019-01-05T10:18:42.450Z,99469.14
2019-01-05T10:22:29.554Z,99463.61
2019-01-05T10:26:46.079Z,99459.59
2019-01-05T10:30:46.750Z,99456.05
2019-01-05T10:34:46.092Z,99452.50
2019-01-05T10:38:36.528Z,99450.03
2019-01-05T10:42:37.050Z,99466.40
2019-01-05T10:46:41.344Z,99451.88
2019-01-05T10:50:37.177Z,99447.74
2019-01-05T10:54:32.713Z,99445.27
2019-01-05T10:58:07.289Z,99443.72
2019-01-05T11:02:07.037Z,99433.45
2019-01-05T11:06:11.421Z,99436.98
2019-01-05T11:09:45.299Z,99429.06
2019-01-05T11:13:42.355Z,99430.72
2019-01-05T11:17:35.871Z,99428.27
2019-01-05T11:21:25.764Z,99428.48
2019-01-05T11:25:22.900Z,99430.83
2019-01-05T11:29:17.971Z,99432.84
2019-01-05T11:33:15.302Z,99426.35
2019-01-05T11:37:12.768Z,99433.53
2019-01-05T11:41:25.685Z,99427.62
2019-01-05T11:45:21.262Z,99432.09
2019-01-05T11:49:23.611Z,99434.58
2019-01-05T11:52:59.746Z,99421.23
2019-01-05T11:57:11.077Z,99421.23
2019-01-05T12:00:56.252Z,99426.53
2019-01-05T12:04:38.295Z,99430.75
2019-01-05T12:08:51.012Z,99427.11
2019-01-05T12:12:48.145Z,99427.22
2019-01-05T12:16:48.437Z,99419.31
2019-01-05T12:20:25.837Z,99424.95
2019-01-05T12:24:35.088Z,99416.69
2019-01-05T12:28:24.574Z,99418.44
2019-01-05T12:32:32.404Z,99419.13
2019-01-05T12:36:30.910Z,99413.67
2019-01-05T12:39:56.257Z,99414.14
2019-01-05T12:43:36.415Z,99412.23
2019-01-05T12:47:38.610Z,99399.59
2019-01-05T12:51:26.061Z,99404.79
2019-01-05T12:55:14.601Z,99402.97
2019-01-05T12:59:04.581Z,99408.54
2019-01-05T13:02:41.484Z,99411.71
2019-01-05T13:06:43.682Z,99410.51
2019-01-05T13:10:42.494Z,99409.36
2019-01-05T13:14:41.704Z,99420.64
2019-01-05T13:18:44.559Z,99420.06
2019-01-05T13:22:30.326Z,99422.45
2019-01-05T13:26:30.482Z,99420.02
2019-01-05T13:30:23.179Z,99433.22
2019-01-05T13:34:06.199Z,99427.08
2019-01-05T13:37:43.647Z,99428.95
2019-01-05T13:42:01.284Z,99432.16
2019-01-05T13:45:55.382Z,99440.86
2019-01-05T13:49:51.638Z,99439.81
2019-01-05T13:53:50.761Z,99444.17
2019-01-05T13:56:54.953Z,99449.36
2019-01-05T14:00:02.521Z,99448.08
2019-01-05T14:02:57.896Z,99444.52
2019-01-05T14:05:46.020Z,99451.70
2019-01-05T14:08:34.339Z,99462.36
2019-01-05T14:11:22.656Z,99461.98
2019-01-05T14:14:10.895Z,99464.23
2019-01-05T14:17:00.331Z,99460.33
2019-01-05T14:19:48.772Z,99460.55
2019-01-05T14:22:47.201Z,99470.94
2019-01-05T14:25:48.658Z,99469.85
2019-01-05T14:28:47.301Z,99466.78
2019-01-05T14:32:06.449Z,99472.71
2019-01-05T14:35:05.244Z,99467.87
2019-01-05T14:37:57.867Z,99468.23
2019-01-05T14:40:45.898Z,99464.18
2019-01-05T14:43:41.438Z,99469.73
2019-01-05T14:46:42.764Z,99470.09
2019-01-05T14:49:41.111Z,99473.80
2019-01-05T14:52:29.148Z,99480.39
2019-01-05T14:55:33.894Z,99477.53
2019-01-05T14:58:35.429Z,99480.03
2019-01-05T15:01:25.951Z,99484.81
2019-01-05T15:04:24.571Z,99488.92
2019-01-05T15:07:32.405Z,99471.88
2019-01-05T15:10:19.144Z,99474.11
2019-01-05T15:13:07.111Z,99478.62
2019-01-05T15:16:08.788Z,99479.45
2019-01-05T15:18:54.181Z,99483.82
2019-01-05T15:21:42.882Z,99485.23
2019-01-05T15:24:42.732Z,99478.73
2019-01-05T15:27:30.951Z,99484.77
2019-01-05T15:30:20.761Z,99490.80
2019-01-05T15:33:23.393Z,99494.23
2019-01-05T15:36:24.797Z,99499.44
2019-01-05T15:39:12.957Z,99494.12
2019-01-05T15:42:01.367Z,99492.67
2019-01-05T15:44:53.678Z,99496.11
2019-01-05T15:47:43.110Z,99494.23
2019-01-05T15:50:38.587Z,99492.25
2019-01-05T15:53:43.075Z,99496.83
2019-01-05T15:56:38.652Z,99496.98
2019-01-05T15:59:26.833Z,99497.45
2019-01-05T16:02:25.143Z,99504.30
2019-01-05T16:05:18.460Z,99507.38
2019-01-05T16:08:21.367Z,99506.19
2019-01-05T16:11:13.827Z,99510.23
2019-01-05T16:14:06.121Z,99516.94
2019-01-05T16:16:58.402Z,99515.64
2019-01-05T16:19:41.257Z,99519.80
2019-01-05T16:22:29.600Z,99514.35
2019-01-05T16:25:19.073Z,99523.34
2019-01-05T16:28:03.967Z,99516.48
2019-01-05T16:31:11.474Z,99518.03
2019-01-05T16:34:00.463Z,99515.44
2019-01-05T16:36:48.329Z,99514.50
2019-01-05T16:39:39.605Z,99516.22
2019-01-05T16:42:32.586Z,99514.85
2019-01-05T16:45:31.189Z,99515.91
2019-01-05T16:48:19.423Z,99522.14
2019-01-05T16:51:02.650Z,99518.03
2019-01-05T16:53:53.532Z,99520.99
2019-01-05T16:56:48.723Z,99526.88
2019-01-05T16:59:36.855Z,99525.25
2019-01-05T17:02:38.231Z,99525.47
2019-01-05T17:05:42.614Z,99517.09
2019-01-05T17:08:30.774Z,99519.59
2019-01-05T17:11:31.918Z,99520.45
2019-01-05T17:14:21.344Z,99515.00
2019-01-05T17:17:10.965Z,99517.24
2019-01-05T17:20:12.659Z,99518.19
2019-01-05T17:23:00.747Z,99517.50
2019-01-05T17:25:53.207Z,99521.75
2019-01-05T17:28:39.119Z,99521.00
2019-01-05T17:31:33.795Z,99525.87
2019-01-05T17:34:25.457Z,99523.38
2019-01-05T17:37:17.746Z,99517.50
2019-01-05T17:40:12.984Z,99524.58
2019-01-05T17:43:01.089Z,99529.77
2019-01-05T17:45:50.502Z,99524.35
2019-01-05T17:48:51.898Z,99521.98
2019-01-05T17:51:47.127Z,99519.38
2019-01-05T17:54:31.037Z,99517.61
2019-01-05T17:57:19.148Z,99514.44
2019-01-05T18:00:20.814Z,99521.98
2019-01-05T18:03:16.332Z,99523.89
2019-01-05T18:06:03.526Z,99517.65
2019-01-05T18:08:51.656Z,99517.65
2019-01-05T18:11:47.208Z,99518.69
2019-01-05T18:14:35.094Z,99521.19
2019-01-05T18:17:24.495Z,99529.09
2019-01-05T18:20:12.666Z,99527.42
2019-01-05T18:23:00.858Z,99530.64
2019-01-05T18:25:49.024Z,99529.59
2019-01-05T18:28:56.447Z,99531.94
2019-01-05T18:31:51.757Z,99542.69
2019-01-05T18:34:36.491Z,99537.49
2019-01-05T18:37:21.713Z,99538.80
2019-01-05T18:40:17.055Z,99540.23
2019-01-05T18:43:08.427Z,99542.72
2019-01-05T18:45:54.748Z,99540.59
2019-01-05T18:48:50.276Z,99534.67
2019-01-05T18:51:42.583Z,99539.80
2019-01-05T18:54:30.567Z,99540.38
2019-01-05T18:57:26.094Z,99540.70
2019-01-05T19:00:33.667Z,99543.77
2019-01-05T19:03:21.272Z,99542.97
2019-01-05T19:06:16.011Z,99538.25
2019-01-05T19:09:03.871Z,99540.27
2019-01-05T19:11:53.008Z,99536.70
2019-01-05T19:15:00.479Z,99537.77
2019-01-05T19:17:50.686Z,99529.98
2019-01-05T19:20:38.781Z,99528.58
2019-01-05T19:23:34.671Z,99529.52
2019-01-05T19:26:30.027Z,99521.72
2019-01-05T19:29:11.935Z,99527.63
2019-01-05T19:32:10.281Z,99532.11
2019-01-05T19:35:08.719Z,99543.69
2019-01-05T19:38:04.372Z,99542.72
2019-01-05T19:41:02.837Z,99532.47
2019-01-05T19:44:04.205Z,99531.75
2019-01-05T19:46:52.172Z,99538.75
2019-01-05T19:49:42.453Z,99538.25
2019-01-05T19:52:30.386Z,99530.81
2019-01-05T19:55:19.835Z,99538.96
2019-01-05T19:58:21.384Z,99533.66
2019-01-05T20:01:06.990Z,99534.59
2019-01-05T20:04:11.693Z,99538.16
2019-01-05T20:07:04.653Z,99534.16
2019-01-05T20:10:05.943Z,99539.82
2019-01-05T20:12:49.573Z,99536.03
2019-01-05T20:15:37.414Z,99535.56
2019-01-05T20:18:25.525Z,99535.56
2019-01-05T20:21:21.147Z,99534.63
2019-01-05T20:24:19.652Z,99533.69
2019-01-05T20:27:08.664Z,99529.54
2019-01-05T20:30:03.614Z,99531.45
2019-01-05T20:32:54.220Z,99533.44
2019-01-05T20:35:49.695Z,99535.67
2019-01-05T20:38:54.081Z,99531.09
2019-01-05T20:41:42.189Z,99526.37
2019-01-05T20:44:46.894Z,99533.44
2019-01-05T20:47:34.844Z,99532.75
2019-01-05T20:50:32.612Z,99538.05
2019-01-05T20:53:30.826Z,99534.88
2019-01-05T20:56:18.928Z,99534.30
2019-01-05T20:59:08.353Z,99525.09
2019-01-05T21:01:56.506Z,99525.45
2019-01-05T21:04:55.888Z,99532.77
2019-01-05T21:07:39.661Z,99536.66
2019-01-05T21:10:28.039Z,99538.79
2019-01-05T21:13:21.500Z,99543.63
2019-01-05T21:16:21.355Z,99535.72
2019-01-05T21:19:13.846Z,99542.93
2019-01-05T21:22:09.376Z,99551.87
2019-01-05T21:25:07.953Z,99545.52
2019-01-05T21:28:15.612Z,99544.80
2019-01-05T21:31:04.933Z,99548.36
2019-01-05T21:33:56.727Z,99540.46
2019-01-05T21:36:58.394Z,99553.44
2019-01-05T21:40:03.037Z,99552.03
2019-01-05T21:43:01.284Z,99544.23
2019-01-05T21:45:49.362Z,99543.17
2019-01-05T21:48:41.825Z,99536.67
2019-01-05T21:51:31.220Z,99534.93
2019-01-05T21:54:23.508Z,99535.16
2019-01-05T21:57:15.744Z,99540.44
2019-01-05T22:00:03.654Z,99531.72
2019-01-05T22:02:47.218Z,99538.92
2019-01-05T22:05:35.104Z,99544.35
2019-01-05T22:08:30.285Z,99544.82
2019-01-05T22:11:23.099Z,99546.45
2019-01-05T22:14:23.902Z,99540.46
2019-01-05T22:17:13.293Z,99549.75
2019-01-05T22:20:11.794Z,99550.60
2019-01-05T22:23:05.912Z,99552.14
2019-01-05T22:26:08.943Z,99553.66
2019-01-05T22:28:56.788Z,99551.43
2019-01-05T22:32:01.486Z,99543.75
2019-01-05T22:34:58.253Z,99535.63
2019-01-05T22:37:40.646Z,99537.28
2019-01-05T22:40:42.698Z,99545.77
2019-01-05T22:43:30.544Z,99542.34
2019-01-05T22:46:19.969Z,99537.05
2019-01-05T22:49:08.240Z,99537.63
2019-01-05T22:52:11.545Z,99536.09
2019-01-05T22:55:09.681Z,99535.16
2019-01-05T22:57:57.955Z,99530.90
2019-01-05T23:00:45.934Z,99529.86
2019-01-05T23:03:46.222Z,99525.14
2019-01-05T23:06:34.288Z,99523.48
2019-01-05T23:09:30.439Z,99525.24
2019-01-05T23:12:20.077Z,99528.18
2019-01-05T23:15:15.463Z,99536.44
2019-01-05T23:18:07.787Z,99535.39
2019-01-05T23:20:56.102Z,99539.53
2019-01-05T23:23:44.301Z,99541.41
2019-01-05T23:26:32.427Z,99533.12
2019-01-05T23:29:20.593Z,99541.63
2019-01-05T23:32:10.943Z,99540.69
2019-01-05T23:34:59.226Z,99538.80
2019-01-05T23:37:47.268Z,99538.44
2019-01-05T23:40:54.937Z,99541.77
2019-01-05T23:43:42.851Z,99537.85
2019-01-05T23:46:41.093Z,99538.56
2019-01-05T23:49:48.801Z,99538.68
2019-01-05T23:52:47.376Z,99537.39
2019-01-05T23:55:36.811Z,99549.05
2019-01-05T23:58:42.294Z,99544.23
